sensor_id;sensor_type;location;lat;lon;timestamp;temperature;humidity
28947;DHT22;16052;50.930;5.326;2023-04-09T00:00:08;13.00;42.40
28947;DHT22;16052;50.930;5.326;2023-04-09T00:02:34;13.00;44.10
28947;DHT22;16052;50.930;5.326;2023-04-09T00:05:01;13.00;46.10
28947;DHT22;16052;50.930;5.326;2023-04-09T00:07:26;13.00;47.90
28947;DHT22;16052;50.930;5.326;2023-04-09T00:09:52;12.90;50.90
28947;DHT22;16052;50.930;5.326;2023-04-09T00:12:18;12.90;57.00
28947;DHT22;16052;50.930;5.326;2023-04-09T00:14:43;12.90;55.30
28947;DHT22;16052;50.930;5.326;2023-04-09T00:17:09;12.90;55.50
28947;DHT22;16052;50.930;5.326;2023-04-09T00:19:34;12.90;57.60
28947;DHT22;16052;50.930;5.326;2023-04-09T00:22:00;13.00;55.60
28947;DHT22;16052;50.930;5.326;2023-04-09T00:24:26;12.80;57.50
28947;DHT22;16052;50.930;5.326;2023-04-09T00:26:52;12.90;57.40
28947;DHT22;16052;50.930;5.326;2023-04-09T00:29:17;12.90;54.90
28947;DHT22;16052;50.930;5.326;2023-04-09T00:31:43;12.80;56.70
28947;DHT22;16052;50.930;5.326;2023-04-09T00:34:10;12.40;66.40
28947;DHT22;16052;50.930;5.326;2023-04-09T00:36:35;12.10;73.20
28947;DHT22;16052;50.930;5.326;2023-04-09T00:39:01;11.80;80.70
28947;DHT22;16052;50.930;5.326;2023-04-09T00:41:27;11.70;86.70
28947;DHT22;16052;50.930;5.326;2023-04-09T00:43:55;11.80;87.50
28947;DHT22;16052;50.930;5.326;2023-04-09T00:46:21;11.80;86.00
28947;DHT22;16052;50.930;5.326;2023-04-09T00:48:47;11.90;83.70
28947;DHT22;16052;50.930;5.326;2023-04-09T00:51:12;12.20;77.40
28947;DHT22;16052;50.930;5.326;2023-04-09T00:53:38;12.40;71.70
28947;DHT22;16052;50.930;5.326;2023-04-09T00:56:04;12.30;70.90
28947;DHT22;16052;50.930;5.326;2023-04-09T00:58:31;12.20;73.90
28947;DHT22;16052;50.930;5.326;2023-04-09T01:00:56;12.20;74.60
28947;DHT22;16052;50.930;5.326;2023-04-09T01:03:22;12.20;74.70
28947;DHT22;16052;50.930;5.326;2023-04-09T01:06:11;12.30;71.40
28947;DHT22;16052;50.930;5.326;2023-04-09T01:09:26;12.40;73.50
28947;DHT22;16052;50.930;5.326;2023-04-09T01:14:41;12.20;74.30
28947;DHT22;16052;50.930;5.326;2023-04-09T01:17:17;12.50;69.00
28947;DHT22;16052;50.930;5.326;2023-04-09T01:20:09;12.40;67.70
28947;DHT22;16052;50.930;5.326;2023-04-09T01:25:52;12.30;71.80
28947;DHT22;16052;50.930;5.326;2023-04-09T01:28:43;12.30;74.70
28947;DHT22;16052;50.930;5.326;2023-04-09T01:31:16;12.30;73.30
28947;DHT22;16052;50.930;5.326;2023-04-09T01:33:43;12.60;65.10
28947;DHT22;16052;50.930;5.326;2023-04-09T01:36:09;12.80;57.20
28947;DHT22;16052;50.930;5.326;2023-04-09T01:38:42;12.70;52.60
28947;DHT22;16052;50.930;5.326;2023-04-09T01:41:11;12.40;60.00
28947;DHT22;16052;50.930;5.326;2023-04-09T01:43:39;12.40;65.90
28947;DHT22;16052;50.930;5.326;2023-04-09T01:46:06;12.30;65.80
28947;DHT22;16052;50.930;5.326;2023-04-09T01:48:32;12.20;69.40
28947;DHT22;16052;50.930;5.326;2023-04-09T01:50:58;12.30;70.40
28947;DHT22;16052;50.930;5.326;2023-04-09T01:53:24;12.30;71.40
28947;DHT22;16052;50.930;5.326;2023-04-09T01:55:53;12.30;68.40
28947;DHT22;16052;50.930;5.326;2023-04-09T01:58:21;12.30;70.10
28947;DHT22;16052;50.930;5.326;2023-04-09T02:00:48;12.30;70.10
28947;DHT22;16052;50.930;5.326;2023-04-09T02:03:23;12.40;71.60
28947;DHT22;16052;50.930;5.326;2023-04-09T02:05:56;12.40;67.30
28947;DHT22;16052;50.930;5.326;2023-04-09T02:08:24;12.50;61.30
28947;DHT22;16052;50.930;5.326;2023-04-09T02:10:57;12.50;62.10
28947;DHT22;16052;50.930;5.326;2023-04-09T02:13:24;12.50;60.20
28947;DHT22;16052;50.930;5.326;2023-04-09T02:15:52;12.30;64.20
28947;DHT22;16052;50.930;5.326;2023-04-09T02:18:26;12.10;69.60
28947;DHT22;16052;50.930;5.326;2023-04-09T02:20:53;12.20;71.40
28947;DHT22;16052;50.930;5.326;2023-04-09T02:23:19;12.30;68.00
28947;DHT22;16052;50.930;5.326;2023-04-09T02:25:45;12.30;66.90
28947;DHT22;16052;50.930;5.326;2023-04-09T02:28:11;12.20;67.00
28947;DHT22;16052;50.930;5.326;2023-04-09T02:30:36;12.30;66.30
28947;DHT22;16052;50.930;5.326;2023-04-09T02:33:02;12.30;62.70
28947;DHT22;16052;50.930;5.326;2023-04-09T02:35:28;12.20;65.20
28947;DHT22;16052;50.930;5.326;2023-04-09T02:37:54;12.10;65.90
28947;DHT22;16052;50.930;5.326;2023-04-09T02:40:20;12.10;61.50
28947;DHT22;16052;50.930;5.326;2023-04-09T02:42:45;12.10;61.70
28947;DHT22;16052;50.930;5.326;2023-04-09T02:45:11;12.00;61.50
28947;DHT22;16052;50.930;5.326;2023-04-09T02:47:37;12.00;64.10
28947;DHT22;16052;50.930;5.326;2023-04-09T02:50:03;11.90;65.40
28947;DHT22;16052;50.930;5.326;2023-04-09T02:52:29;11.90;66.40
28947;DHT22;16052;50.930;5.326;2023-04-09T02:54:55;12.00;60.60
28947;DHT22;16052;50.930;5.326;2023-04-09T02:57:21;12.00;58.50
28947;DHT22;16052;50.930;5.326;2023-04-09T02:59:46;11.90;58.70
28947;DHT22;16052;50.930;5.326;2023-04-09T03:02:12;11.60;64.40
28947;DHT22;16052;50.930;5.326;2023-04-09T03:04:38;11.60;65.50
28947;DHT22;16052;50.930;5.326;2023-04-09T03:07:04;11.70;59.60
28947;DHT22;16052;50.930;5.326;2023-04-09T03:09:29;11.60;58.30
28947;DHT22;16052;50.930;5.326;2023-04-09T03:11:55;11.50;61.70
28947;DHT22;16052;50.930;5.326;2023-04-09T03:14:27;11.60;58.90
28947;DHT22;16052;50.930;5.326;2023-04-09T03:16:53;11.60;57.60
28947;DHT22;16052;50.930;5.326;2023-04-09T03:19:18;11.60;59.30
28947;DHT22;16052;50.930;5.326;2023-04-09T03:21:44;11.30;66.30
28947;DHT22;16052;50.930;5.326;2023-04-09T03:24:10;11.40;70.60
28947;DHT22;16052;50.930;5.326;2023-04-09T03:26:36;11.30;70.30
28947;DHT22;16052;50.930;5.326;2023-04-09T03:29:03;11.10;75.50
28947;DHT22;16052;50.930;5.326;2023-04-09T03:31:29;11.10;77.60
28947;DHT22;16052;50.930;5.326;2023-04-09T03:33:55;11.10;79.10
28947;DHT22;16052;50.930;5.326;2023-04-09T03:36:21;11.10;79.50
28947;DHT22;16052;50.930;5.326;2023-04-09T03:38:46;11.10;76.10
28947;DHT22;16052;50.930;5.326;2023-04-09T03:41:12;11.00;76.70
28947;DHT22;16052;50.930;5.326;2023-04-09T03:43:38;11.30;73.00
28947;DHT22;16052;50.930;5.326;2023-04-09T03:46:14;11.30;67.30
28947;DHT22;16052;50.930;5.326;2023-04-09T03:48:40;11.30;65.80
28947;DHT22;16052;50.930;5.326;2023-04-09T03:51:11;11.30;68.90
28947;DHT22;16052;50.930;5.326;2023-04-09T03:53:37;11.30;67.60
28947;DHT22;16052;50.930;5.326;2023-04-09T03:56:02;11.30;67.10
28947;DHT22;16052;50.930;5.326;2023-04-09T03:58:28;11.20;69.60
28947;DHT22;16052;50.930;5.326;2023-04-09T04:00:54;11.10;73.10
28947;DHT22;16052;50.930;5.326;2023-04-09T04:03:19;11.20;74.20
28947;DHT22;16052;50.930;5.326;2023-04-09T04:05:45;11.20;76.30
28947;DHT22;16052;50.930;5.326;2023-04-09T04:08:11;11.20;72.90
28947;DHT22;16052;50.930;5.326;2023-04-09T04:10:36;11.20;74.90
28947;DHT22;16052;50.930;5.326;2023-04-09T04:13:02;11.20;75.80
28947;DHT22;16052;50.930;5.326;2023-04-09T04:15:28;11.30;74.40
28947;DHT22;16052;50.930;5.326;2023-04-09T04:17:54;11.30;73.30
28947;DHT22;16052;50.930;5.326;2023-04-09T04:20:20;11.20;77.60
28947;DHT22;16052;50.930;5.326;2023-04-09T04:22:46;11.10;78.90
28947;DHT22;16052;50.930;5.326;2023-04-09T04:25:12;11.10;81.80
28947;DHT22;16052;50.930;5.326;2023-04-09T04:27:40;11.10;79.90
28947;DHT22;16052;50.930;5.326;2023-04-09T04:30:07;11.20;81.00
28947;DHT22;16052;50.930;5.326;2023-04-09T04:32:33;11.20;78.20
28947;DHT22;16052;50.930;5.326;2023-04-09T04:34:58;11.10;78.90
28947;DHT22;16052;50.930;5.326;2023-04-09T04:37:25;11.10;82.20
28947;DHT22;16052;50.930;5.326;2023-04-09T04:39:51;11.30;78.00
28947;DHT22;16052;50.930;5.326;2023-04-09T04:42:17;11.20;76.90
28947;DHT22;16052;50.930;5.326;2023-04-09T04:44:43;11.20;78.70
28947;DHT22;16052;50.930;5.326;2023-04-09T04:47:09;11.20;76.70
28947;DHT22;16052;50.930;5.326;2023-04-09T04:49:34;11.10;79.30
28947;DHT22;16052;50.930;5.326;2023-04-09T04:52:00;10.70;84.20
28947;DHT22;16052;50.930;5.326;2023-04-09T04:54:25;10.40;91.00
28947;DHT22;16052;50.930;5.326;2023-04-09T04:56:51;10.20;93.10
28947;DHT22;16052;50.930;5.326;2023-04-09T04:59:17;9.70;96.30
28947;DHT22;16052;50.930;5.326;2023-04-09T05:01:43;9.70;99.70
28947;DHT22;16052;50.930;5.326;2023-04-09T05:04:09;9.70;99.50
28947;DHT22;16052;50.930;5.326;2023-04-09T05:06:34;9.60;99.90
28947;DHT22;16052;50.930;5.326;2023-04-09T05:09:00;9.80;98.50
28947;DHT22;16052;50.930;5.326;2023-04-09T05:11:26;9.70;98.70
28947;DHT22;16052;50.930;5.326;2023-04-09T05:13:52;9.50;99.90
28947;DHT22;16052;50.930;5.326;2023-04-09T05:16:19;9.70;99.90
28947;DHT22;16052;50.930;5.326;2023-04-09T05:18:45;9.50;99.90
28947;DHT22;16052;50.930;5.326;2023-04-09T05:21:12;9.60;99.90
28947;DHT22;16052;50.930;5.326;2023-04-09T05:23:38;9.50;99.90
28947;DHT22;16052;50.930;5.326;2023-04-09T05:26:03;9.50;99.90
28947;DHT22;16052;50.930;5.326;2023-04-09T05:28:29;9.70;99.90
28947;DHT22;16052;50.930;5.326;2023-04-09T05:30:55;9.70;99.90
28947;DHT22;16052;50.930;5.326;2023-04-09T05:33:21;9.60;99.90
28947;DHT22;16052;50.930;5.326;2023-04-09T05:35:46;9.40;99.90
28947;DHT22;16052;50.930;5.326;2023-04-09T05:38:12;9.20;99.90
28947;DHT22;16052;50.930;5.326;2023-04-09T05:40:40;9.00;99.90
28947;DHT22;16052;50.930;5.326;2023-04-09T05:43:08;8.90;99.90
28947;DHT22;16052;50.930;5.326;2023-04-09T05:45:34;9.00;99.90
28947;DHT22;16052;50.930;5.326;2023-04-09T05:48:00;9.00;99.90
28947;DHT22;16052;50.930;5.326;2023-04-09T05:50:26;9.10;99.90
28947;DHT22;16052;50.930;5.326;2023-04-09T05:52:51;9.20;99.90
28947;DHT22;16052;50.930;5.326;2023-04-09T05:55:17;9.40;99.90
28947;DHT22;16052;50.930;5.326;2023-04-09T05:57:43;9.50;99.90
28947;DHT22;16052;50.930;5.326;2023-04-09T06:00:10;9.60;99.90
28947;DHT22;16052;50.930;5.326;2023-04-09T06:02:36;9.50;99.90
28947;DHT22;16052;50.930;5.326;2023-04-09T06:05:02;9.70;99.90
28947;DHT22;16052;50.930;5.326;2023-04-09T06:07:27;9.60;99.90
28947;DHT22;16052;50.930;5.326;2023-04-09T06:09:54;9.90;99.90
28947;DHT22;16052;50.930;5.326;2023-04-09T06:12:20;9.70;99.90
28947;DHT22;16052;50.930;5.326;2023-04-09T06:14:49;10.00;99.90
28947;DHT22;16052;50.930;5.326;2023-04-09T06:17:14;10.00;99.90
28947;DHT22;16052;50.930;5.326;2023-04-09T06:19:40;9.80;99.90
28947;DHT22;16052;50.930;5.326;2023-04-09T06:22:09;9.60;99.90
28947;DHT22;16052;50.930;5.326;2023-04-09T06:24:35;9.80;99.90
28947;DHT22;16052;50.930;5.326;2023-04-09T06:27:01;9.60;99.90
28947;DHT22;16052;50.930;5.326;2023-04-09T06:29:26;9.50;99.90
28947;DHT22;16052;50.930;5.326;2023-04-09T06:31:52;9.50;99.90
28947;DHT22;16052;50.930;5.326;2023-04-09T06:34:18;9.60;99.90
28947;DHT22;16052;50.930;5.326;2023-04-09T06:36:44;9.70;99.90
28947;DHT22;16052;50.930;5.326;2023-04-09T06:39:10;9.80;99.90
28947;DHT22;16052;50.930;5.326;2023-04-09T06:41:35;9.80;99.90
28947;DHT22;16052;50.930;5.326;2023-04-09T06:44:01;9.80;99.90
28947;DHT22;16052;50.930;5.326;2023-04-09T06:46:27;9.90;99.90
28947;DHT22;16052;50.930;5.326;2023-04-09T06:48:52;10.10;99.90
28947;DHT22;16052;50.930;5.326;2023-04-09T06:51:18;10.00;99.90
28947;DHT22;16052;50.930;5.326;2023-04-09T06:53:44;10.00;99.90
28947;DHT22;16052;50.930;5.326;2023-04-09T06:56:09;10.00;99.90
28947;DHT22;16052;50.930;5.326;2023-04-09T06:58:35;10.20;99.90
28947;DHT22;16052;50.930;5.326;2023-04-09T07:01:01;10.50;99.90
28947;DHT22;16052;50.930;5.326;2023-04-09T07:03:28;10.40;99.90
28947;DHT22;16052;50.930;5.326;2023-04-09T07:05:54;10.30;99.90
28947;DHT22;16052;50.930;5.326;2023-04-09T07:08:20;10.50;99.90
28947;DHT22;16052;50.930;5.326;2023-04-09T07:10:47;10.60;99.90
28947;DHT22;16052;50.930;5.326;2023-04-09T07:13:13;10.60;99.90
28947;DHT22;16052;50.930;5.326;2023-04-09T07:15:39;10.60;99.90
28947;DHT22;16052;50.930;5.326;2023-04-09T07:18:05;10.60;99.90
28947;DHT22;16052;50.930;5.326;2023-04-09T07:20:30;10.70;99.90
28947;DHT22;16052;50.930;5.326;2023-04-09T07:22:56;10.70;99.90
28947;DHT22;16052;50.930;5.326;2023-04-09T07:25:22;10.90;99.90
28947;DHT22;16052;50.930;5.326;2023-04-09T07:27:48;11.00;99.90
28947;DHT22;16052;50.930;5.326;2023-04-09T07:30:14;11.00;99.40
28947;DHT22;16052;50.930;5.326;2023-04-09T07:32:39;11.10;99.90
28947;DHT22;16052;50.930;5.326;2023-04-09T07:35:06;11.20;99.90
28947;DHT22;16052;50.930;5.326;2023-04-09T07:37:34;11.40;99.90
28947;DHT22;16052;50.930;5.326;2023-04-09T07:40:00;11.10;99.90
28947;DHT22;16052;50.930;5.326;2023-04-09T07:42:26;10.80;99.90
28947;DHT22;16052;50.930;5.326;2023-04-09T07:44:52;10.90;99.90
28947;DHT22;16052;50.930;5.326;2023-04-09T07:47:18;10.80;99.90
28947;DHT22;16052;50.930;5.326;2023-04-09T07:49:43;10.90;99.90
28947;DHT22;16052;50.930;5.326;2023-04-09T07:52:09;11.00;99.90
